Time;durP1;ratioP1;P1;durP2;ratioP2;P2;SDS_P1;SDS_P2;PMS_P1;PMS_P2;Temp;Humidity;BMP_temperature;BMP_pressure;BME280_temperature;BME280_humidity;BME280_pressure;Samples;Min_cycle;Max_cycle;Signal;HPM_P1;HPM_P2
2022/06/05 00:00:29;;;;;;;3.90;3.60;;;19.90;83.00;;;;;;2082358;28;20017;-68
2022/06/05 00:02:01;;;;;;;4.10;3.80;;;19.90;82.80;;;;;;2085515;28;20022;-68
2022/06/05 00:03:28;;;;;;;4.53;3.50;;;19.90;84.40;;;;;;2084918;28;20030;-68
2022/06/05 00:05:02;;;;;;;3.70;3.40;;;19.80;85.20;;;;;;2084913;28;20037;-68
2022/06/05 00:06:20;;;;;;;3.72;3.42;;;19.80;85.30;;;;;;2079358;28;20572;-68
2022/06/05 00:07:44;;;;;;;4.57;3.58;;;19.80;85.10;;;;;;2084376;28;20435;-68
2022/06/05 00:09:05;;;;;;;3.75;3.35;;;19.70;86.00;;;;;;2089016;28;20035;-68
2022/06/05 00:10:20;;;;;;;3.80;3.47;;;19.70;85.40;;;;;;2085259;28;20029;-68
2022/06/05 00:11:22;;;;;;;6.18;3.75;;;19.70;86.50;;;;;;2086651;28;20029;-68
2022/06/05 00:12:38;;;;;;;3.95;3.60;;;19.70;85.90;;;;;;2083759;28;20370;-68
2022/06/05 00:13:52;;;;;;;3.97;3.58;;;19.70;87.30;;;;;;2082263;28;20025;-68
2022/06/05 00:14:52;;;;;;;4.05;3.35;;;19.70;87.50;;;;;;2089130;28;20020;-68
2022/06/05 00:15:53;;;;;;;5.57;4.13;;;19.70;86.90;;;;;;2085627;28;20024;-68
2022/06/05 00:16:54;;;;;;;4.00;3.70;;;19.70;87.00;;;;;;2086824;28;20021;-68
2022/06/05 00:17:54;;;;;;;4.22;3.83;;;19.70;87.20;;;;;;2082289;28;20020;-68
2022/06/05 00:18:56;;;;;;;4.10;3.80;;;19.70;87.30;;;;;;2084348;28;20029;-68
2022/06/05 00:19:56;;;;;;;4.45;3.85;;;19.70;87.60;;;;;;2084914;28;20441;-68
2022/06/05 00:20:57;;;;;;;4.18;3.67;;;19.70;88.00;;;;;;2087012;28;20032;-68
2022/06/05 00:21:58;;;;;;;4.57;3.50;;;19.70;88.10;;;;;;2082687;28;20421;-68
2022/06/05 00:22:58;;;;;;;6.90;3.67;;;19.70;87.90;;;;;;2085270;28;20033;-68
2022/06/05 00:23:59;;;;;;;4.18;3.88;;;19.70;88.50;;;;;;2083240;28;20342;-68
2022/06/05 00:25:00;;;;;;;4.05;3.75;;;19.70;88.90;;;;;;2082089;28;20053;-68
2022/06/05 00:26:19;;;;;;;4.47;3.67;;;19.70;88.90;;;;;;2083099;28;20041;-68
2022/06/05 00:27:38;;;;;;;5.63;3.65;;;19.70;89.10;;;;;;2084215;28;20497;-68
2022/06/05 00:28:53;;;;;;;4.00;3.70;;;19.60;90.00;;;;;;2085727;28;20067;-68
2022/06/05 00:30:17;;;;;;;4.00;3.55;;;19.60;90.30;;;;;;2083493;28;20032;-68
2022/06/05 00:31:23;;;;;;;5.05;3.75;;;19.60;90.90;;;;;;2080866;28;20068;-68
2022/06/05 00:32:32;;;;;;;4.53;3.42;;;19.50;90.50;;;;;;2082248;28;20032;-68
2022/06/05 00:33:38;;;;;;;4.22;3.92;;;19.50;90.70;;;;;;2084240;28;20119;-68
2022/06/05 00:34:39;;;;;;;4.10;3.67;;;19.50;91.00;;;;;;2081115;28;20171;-68
2022/06/05 00:35:53;;;;;;;5.85;3.95;;;19.50;90.70;;;;;;2083825;28;20033;-68
2022/06/05 00:37:12;;;;;;;6.25;3.90;;;19.50;91.10;;;;;;2081731;28;20018;-68
2022/06/05 00:38:20;;;;;;;4.00;3.70;;;19.50;91.50;;;;;;2082553;28;20087;-68
2022/06/05 00:39:34;;;;;;;4.07;3.75;;;19.40;91.30;;;;;;2083039;28;20022;-68
2022/06/05 00:40:50;;;;;;;4.22;3.90;;;19.40;91.40;;;;;;2083096;28;20027;-68
2022/06/05 00:42:10;;;;;;;3.70;3.40;;;19.40;91.70;;;;;;2085081;28;20052;-68
2022/06/05 00:43:14;;;;;;;4.28;3.88;;;19.40;92.10;;;;;;2085753;28;20037;-68
2022/06/05 00:44:19;;;;;;;4.50;4.10;;;19.40;91.70;;;;;;2083721;28;20036;-68
2022/06/05 00:45:20;;;;;;;4.50;4.20;;;19.40;92.00;;;;;;2086417;28;20021;-68
2022/06/05 00:46:23;;;;;;;5.32;4.22;;;19.40;92.00;;;;;;2084435;28;20025;-68
2022/06/05 00:47:30;;;;;;;6.07;3.92;;;19.40;92.30;;;;;;2087979;28;20033;-68
2022/06/05 00:48:31;;;;;;;6.32;3.85;;;19.40;92.30;;;;;;2083027;28;20032;-68
2022/06/05 00:49:48;;;;;;;7.30;4.03;;;19.40;92.30;;;;;;2082974;28;20025;-68
2022/06/05 00:50:48;;;;;;;4.35;4.05;;;19.40;93.10;;;;;;2086810;28;20023;-68
2022/06/05 00:51:49;;;;;;;4.68;4.07;;;19.30;92.50;;;;;;2084595;28;20028;-68
2022/06/05 00:52:53;;;;;;;4.68;4.28;;;19.30;92.80;;;;;;2083549;28;20277;-68
2022/06/05 00:53:54;;;;;;;5.53;4.40;;;19.30;92.90;;;;;;2083240;28;20036;-68
2022/06/05 00:54:54;;;;;;;4.72;4.32;;;19.30;92.90;;;;;;2084833;28;20104;-68
2022/06/05 00:55:55;;;;;;;6.00;4.35;;;19.30;92.90;;;;;;2082218;28;20018;-68
2022/06/05 00:56:56;;;;;;;5.25;4.00;;;19.30;93.20;;;;;;2084823;28;20055;-68
2022/06/05 00:57:57;;;;;;;6.13;4.50;;;19.30;93.20;;;;;;2082233;28;20021;-68
2022/06/05 00:58:57;;;;;;;4.55;4.25;;;19.30;93.30;;;;;;2083765;28;20069;-68
2022/06/05 01:00:01;;;;;;;4.63;4.22;;;19.20;93.30;;;;;;2084601;28;20392;-68
2022/06/05 01:01:02;;;;;;;4.40;4.00;;;19.20;93.20;;;;;;2082093;28;20055;-68
2022/06/05 01:02:03;;;;;;;5.10;4.70;;;19.20;93.50;;;;;;2081053;28;20029;-68
2022/06/05 01:03:07;;;;;;;5.03;4.28;;;19.20;93.60;;;;;;2083901;28;20021;-68
2022/06/05 01:04:09;;;;;;;4.10;3.75;;;19.20;93.90;;;;;;2081281;28;20038;-68
2022/06/05 01:05:13;;;;;;;4.30;3.90;;;19.20;93.30;;;;;;2084635;28;20550;-68
2022/06/05 01:06:14;;;;;;;5.22;4.68;;;19.20;93.60;;;;;;2083060;28;20056;-68
2022/06/05 01:07:15;;;;;;;5.45;4.13;;;19.20;94.00;;;;;;2084396;28;20028;-68
2022/06/05 01:08:16;;;;;;;5.22;4.45;;;19.20;94.10;;;;;;2083628;28;20029;-68
2022/06/05 01:09:17;;;;;;;4.53;4.07;;;19.20;94.10;;;;;;2085437;28;20086;-68
2022/06/05 01:10:20;;;;;;;4.57;4.15;;;19.20;94.10;;;;;;2084115;28;20108;-68
2022/06/05 01:11:56;;;;;;;4.63;4.22;;;19.20;94.30;;;;;;2086160;28;20573;-68
2022/06/05 01:13:33;;;;;;;5.30;4.47;;;19.10;94.80;;;;;;2087877;28;20129;-68
2022/06/05 01:14:45;;;;;;;5.60;4.35;;;19.10;95.20;;;;;;2081267;28;20021;-68
2022/06/05 01:16:00;;;;;;;4.40;4.00;;;19.10;94.90;;;;;;2080233;28;20025;-68
2022/06/05 01:17:34;;;;;;;4.78;4.28;;;19.10;95.70;;;;;;2081861;28;20033;-68
2022/06/05 01:18:40;;;;;;;6.50;5.25;;;19.00;96.10;;;;;;2083281;28;20017;-68
2022/06/05 01:19:51;;;;;;;5.57;4.93;;;19.00;95.90;;;;;;2081852;28;20033;-68
2022/06/05 01:21:00;;;;;;;5.07;4.57;;;19.00;96.00;;;;;;2083194;28;20029;-68
2022/06/05 01:22:19;;;;;;;5.35;4.82;;;18.90;96.70;;;;;;2084260;28;20104;-68
2022/06/05 01:23:47;;;;;;;4.82;4.43;;;18.90;97.10;;;;;;2082229;28;20025;-68
2022/06/05 01:25:24;;;;;;;5.30;4.90;;;18.90;97.20;;;;;;2083845;28;20013;-68
2022/06/05 01:26:37;;;;;;;5.72;5.00;;;18.80;97.70;;;;;;2084438;28;20036;-68
2022/06/05 01:27:41;;;;;;;5.20;4.70;;;18.80;98.00;;;;;;2082196;28;20049;-68
2022/06/05 01:28:51;;;;;;;4.75;4.35;;;18.80;97.40;;;;;;2081968;28;20029;-68
2022/06/05 01:30:25;;;;;;;5.28;4.88;;;18.80;97.50;;;;;;2080889;28;20048;-68
2022/06/05 01:31:28;;;;;;;5.10;4.60;;;18.80;97.90;;;;;;2074774;28;20493;-68
2022/06/05 01:32:39;;;;;;;5.18;4.78;;;18.80;97.90;;;;;;2081935;28;20030;-68
2022/06/05 01:33:49;;;;;;;4.90;4.50;;;18.70;98.40;;;;;;2088364;28;20277;-68
2022/06/05 01:34:57;;;;;;;5.30;4.90;;;18.70;98.70;;;;;;2085263;28;20029;-68
2022/06/05 01:36:39;;;;;;;4.95;4.50;;;18.70;98.90;;;;;;2083187;28;20025;-68
2022/06/05 01:37:49;;;;;;;5.32;4.85;;;18.70;99.90;;;;;;2082160;28;20032;-68
2022/06/05 01:39:15;;;;;;;5.03;4.53;;;18.70;99.20;;;;;;2082840;28;20500;-68
2022/06/05 01:40:20;;;;;;;4.75;4.35;;;18.60;99.90;;;;;;2079417;28;20562;-68
2022/06/05 01:41:34;;;;;;;5.22;4.82;;;18.60;99.30;;;;;;2080991;28;20021;-68
2022/06/05 01:42:39;;;;;;;5.93;5.45;;;18.60;99.90;;;;;;2085577;28;20116;-68
2022/06/05 01:43:44;;;;;;;5.32;4.70;;;18.60;99.90;;;;;;2086827;28;20013;-68
2022/06/05 01:44:48;;;;;;;5.32;4.90;;;18.60;99.90;;;;;;2084085;28;20036;-68
2022/06/05 01:45:58;;;;;;;5.78;5.28;;;18.60;99.70;;;;;;2082272;28;20079;-68
2022/06/05 01:47:05;;;;;;;4.70;4.30;;;18.60;99.90;;;;;;2084957;28;20530;-68
2022/06/05 01:48:09;;;;;;;8.13;4.57;;;18.60;99.90;;;;;;2083976;28;20044;-68
2022/06/05 01:49:25;;;;;;;5.75;5.35;;;18.60;99.90;;;;;;2085415;28;20074;-68
2022/06/05 01:50:37;;;;;;;8.52;5.05;;;18.60;99.90;;;;;;2081799;28;20025;-69
2022/06/05 01:51:59;;;;;;;7.75;5.13;;;18.60;99.90;;;;;;2085909;28;20029;-68
2022/06/05 01:53:05;;;;;;;5.47;5.07;;;18.60;99.90;;;;;;2083580;28;20495;-68
2022/06/05 01:54:13;;;;;;;5.38;4.97;;;18.50;99.90;;;;;;2082847;28;20033;-68
2022/06/05 01:55:41;;;;;;;7.25;5.38;;;18.50;99.90;;;;;;2082849;28;20104;-68
2022/06/05 01:56:48;;;;;;;5.55;5.05;;;18.50;99.90;;;;;;2083239;28;20033;-68
2022/06/05 01:57:52;;;;;;;6.72;5.20;;;18.50;99.90;;;;;;2081581;28;20032;-68
2022/06/05 01:59:17;;;;;;;6.82;5.53;;;18.50;99.90;;;;;;2080779;28;20037;-68
2022/06/05 02:00:22;;;;;;;5.38;4.90;;;18.40;99.90;;;;;;2082533;28;20040;-68
2022/06/05 02:01:30;;;;;;;7.25;5.55;;;18.40;99.90;;;;;;2083295;28;20412;-68
2022/06/05 02:02:42;;;;;;;5.45;5.03;;;18.40;99.90;;;;;;2083587;28;20133;-68
2022/06/05 02:03:50;;;;;;;5.75;5.30;;;18.40;99.90;;;;;;2083882;28;20492;-68
2022/06/05 02:05:00;;;;;;;6.40;5.80;;;18.40;99.90;;;;;;2084546;28;20564;-68
2022/06/05 02:06:08;;;;;;;5.65;5.25;;;18.40;99.90;;;;;;2085404;28;20036;-68
2022/06/05 02:07:25;;;;;;;6.05;5.55;;;18.30;99.90;;;;;;2087309;28;20057;-68
2022/06/05 02:08:34;;;;;;;6.05;5.53;;;18.30;99.90;;;;;;2084397;28;20052;-68
2022/06/05 02:09:40;;;;;;;5.97;5.47;;;18.30;99.90;;;;;;2085246;28;20473;-68
2022/06/05 02:10:41;;;;;;;6.97;6.30;;;18.30;99.90;;;;;;2085693;28;20037;-68
2022/06/05 02:11:42;;;;;;;6.47;5.88;;;18.30;99.90;;;;;;2086428;28;20507;-68
2022/06/05 02:12:43;;;;;;;6.65;5.75;;;18.30;99.90;;;;;;2081807;28;20104;-69
2022/06/05 02:13:43;;;;;;;5.50;5.10;;;18.30;99.90;;;;;;2083632;28;20076;-68
2022/06/05 02:14:45;;;;;;;6.60;5.93;;;18.20;99.90;;;;;;2083526;28;20027;-68
2022/06/05 02:15:47;;;;;;;7.63;6.00;;;18.30;99.90;;;;;;2083318;28;20043;-68
2022/06/05 02:16:47;;;;;;;7.43;6.30;;;18.30;99.90;;;;;;2084362;28;20044;-68
2022/06/05 02:17:50;;;;;;;6.70;6.10;;;18.30;99.90;;;;;;2084044;28;20047;-68
2022/06/05 02:18:51;;;;;;;8.77;6.20;;;18.30;99.90;;;;;;2086904;28;20357;-68
2022/06/05 02:19:52;;;;;;;7.13;6.50;;;18.30;99.90;;;;;;2087744;28;20021;-68
2022/06/05 02:20:53;;;;;;;7.00;6.30;;;18.20;99.90;;;;;;2086821;28;20013;-68
2022/06/05 02:22:01;;;;;;;6.28;5.82;;;18.20;99.90;;;;;;2085804;28;20032;-68
2022/06/05 02:23:05;;;;;;;6.63;6.03;;;18.20;99.90;;;;;;2083905;28;20025;-68
2022/06/05 02:24:08;;;;;;;6.63;5.88;;;18.20;99.90;;;;;;2085629;28;20470;-68
2022/06/05 02:25:09;;;;;;;6.60;6.03;;;18.20;99.90;;;;;;2086533;28;20031;-68
2022/06/05 02:26:10;;;;;;;6.63;6.05;;;18.20;99.90;;;;;;2088079;28;20061;-68
2022/06/05 02:27:11;;;;;;;7.28;6.15;;;18.20;99.90;;;;;;2083108;28;20030;-68
2022/06/05 02:28:14;;;;;;;6.85;6.35;;;18.20;99.90;;;;;;2084073;28;20067;-68
2022/06/05 02:29:24;;;;;;;6.50;6.00;;;18.20;99.90;;;;;;2084027;28;20110;-68
2022/06/05 02:30:36;;;;;;;6.97;6.40;;;18.10;99.90;;;;;;2087600;28;20027;-68
2022/06/05 02:31:59;;;;;;;7.25;6.55;;;18.10;99.90;;;;;;2084939;28;20021;-69
2022/06/05 02:33:33;;;;;;;6.40;5.80;;;18.10;99.90;;;;;;2088624;28;20036;-69
2022/06/05 02:34:53;;;;;;;6.93;6.28;;;18.10;99.90;;;;;;2083616;28;20109;-68
2022/06/05 02:36:00;;;;;;;6.80;6.30;;;18.00;99.90;;;;;;2081395;28;20039;-68
2022/06/05 02:37:20;;;;;;;7.18;6.65;;;18.00;99.90;;;;;;2083169;28;20036;-68
2022/06/05 02:38:20;;;;;;;;;;;18.00;99.90;;;;;;2087840;28;20033;-68
2022/06/05 02:39:43;;;;;;;8.52;6.20;;;17.90;99.90;;;;;;2082861;28;19987;-68
2022/06/05 02:41:10;;;;;;;7.10;6.50;;;17.90;99.90;;;;;;2085057;28;20464;-68
2022/06/05 02:42:19;;;;;;;6.72;5.95;;;17.90;99.90;;;;;;2086941;28;20048;-68
2022/06/05 02:43:23;;;;;;;7.60;6.90;;;17.90;99.90;;;;;;2085756;28;20033;-68
2022/06/05 02:44:35;;;;;;;7.05;6.30;;;17.90;99.90;;;;;;2082217;28;20092;-68
2022/06/05 02:45:44;;;;;;;8.02;6.80;;;17.90;99.90;;;;;;2082959;28;20017;-68
2022/06/05 02:47:05;;;;;;;7.53;6.32;;;17.90;99.90;;;;;;2086735;28;20055;-68
2022/06/05 02:48:22;;;;;;;7.13;6.53;;;17.90;99.90;;;;;;2087282;28;20044;-68
2022/06/05 02:49:40;;;;;;;6.80;6.30;;;17.90;99.90;;;;;;2085809;28;20474;-68
2022/06/05 02:50:55;;;;;;;8.23;7.10;;;17.90;99.90;;;;;;2086420;28;20041;-68
2022/06/05 02:52:00;;;;;;;6.63;6.03;;;17.90;99.90;;;;;;2086376;28;20539;-69
2022/06/05 02:53:03;;;;;;;7.60;6.90;;;17.90;99.90;;;;;;2088162;28;20041;-68
2022/06/05 02:54:04;;;;;;;11.98;7.07;;;17.90;99.90;;;;;;2082297;28;20028;-68
2022/06/05 02:55:10;;;;;;;7.80;6.70;;;17.90;99.90;;;;;;2084005;28;20025;-68
2022/06/05 02:56:10;;;;;;;7.95;7.15;;;17.90;99.90;;;;;;2084004;28;20033;-68
2022/06/05 02:57:13;;;;;;;7.38;6.65;;;17.90;99.90;;;;;;2083713;28;20117;-68
2022/06/05 02:58:14;;;;;;;7.68;6.97;;;17.90;99.90;;;;;;2085200;28;20041;-68
2022/06/05 02:59:14;;;;;;;7.55;6.85;;;17.90;99.90;;;;;;2083405;28;20037;-68
2022/06/05 03:00:21;;;;;;;7.93;6.60;;;17.90;99.90;;;;;;2084175;28;20644;-68
2022/06/05 03:04:00;;;;;;;6.97;6.35;;;17.80;99.90;;;;;;2081887;28;20033;-68
2022/06/05 03:05:01;;;;;;;7.40;6.80;;;17.80;99.90;;;;;;2084270;28;20021;-68
2022/06/05 03:06:03;;;;;;;7.47;6.88;;;17.80;99.90;;;;;;2083206;28;20084;-68
2022/06/05 03:07:05;;;;;;;7.18;6.47;;;17.80;99.90;;;;;;2084134;28;20146;-68
2022/06/05 03:08:10;;;;;;;7.60;6.85;;;17.80;99.90;;;;;;2081265;28;20056;-68
2022/06/05 03:09:10;;;;;;;8.23;7.43;;;17.80;99.90;;;;;;2086057;28;20084;-68
2022/06/05 03:10:11;;;;;;;6.82;6.32;;;17.80;99.90;;;;;;2081499;28;20410;-68
2022/06/05 03:11:12;;;;;;;10.07;6.65;;;17.80;99.90;;;;;;2084123;28;20029;-68
2022/06/05 03:12:13;;;;;;;8.23;6.75;;;17.80;99.90;;;;;;2082537;28;20036;-68
2022/06/05 03:13:14;;;;;;;7.50;6.88;;;17.80;99.90;;;;;;2082878;28;20025;-68
2022/06/05 03:14:15;;;;;;;7.63;6.93;;;17.80;99.90;;;;;;2084254;28;20112;-68
2022/06/05 03:15:16;;;;;;;8.93;7.03;;;17.80;99.90;;;;;;2082642;28;20068;-68
2022/06/05 03:16:17;;;;;;;7.05;6.30;;;17.80;99.90;;;;;;2083806;28;20374;-68
2022/06/05 03:17:17;;;;;;;7.80;7.07;;;17.70;99.90;;;;;;2084393;28;20049;-68
2022/06/05 03:18:18;;;;;;;6.82;6.10;;;17.70;99.90;;;;;;2086392;28;20753;-69
2022/06/05 03:19:19;;;;;;;7.32;6.63;;;17.70;99.90;;;;;;2087101;28;20021;-68
2022/06/05 03:20:20;;;;;;;7.43;6.78;;;17.70;99.90;;;;;;2085745;28;20022;-69
2022/06/05 03:21:20;;;;;;;8.73;6.38;;;17.70;99.90;;;;;;2084059;28;20108;-68
2022/06/05 03:22:21;;;;;;;7.32;6.63;;;17.70;99.90;;;;;;2081779;28;20033;-68
2022/06/05 03:23:22;;;;;;;7.32;6.72;;;17.70;99.90;;;;;;2085275;28;20018;-69
2022/06/05 03:24:23;;;;;;;7.35;6.85;;;17.70;99.90;;;;;;2083304;28;20025;-69
2022/06/05 03:25:25;;;;;;;7.25;6.57;;;17.60;99.90;;;;;;2082758;28;20105;-68
2022/06/05 03:26:26;;;;;;;7.03;6.53;;;17.60;99.90;;;;;;2083962;28;20021;-68
2022/06/05 03:27:27;;;;;;;6.75;6.25;;;17.60;99.90;;;;;;2087116;28;20025;-68
2022/06/05 03:28:27;;;;;;;7.50;6.90;;;17.60;99.90;;;;;;2088199;28;20941;-68
2022/06/05 03:29:28;;;;;;;7.28;6.68;;;17.60;99.90;;;;;;2088872;28;20047;-68
2022/06/05 03:30:28;;;;;;;7.78;7.07;;;17.60;99.90;;;;;;2082673;28;20057;-68
2022/06/05 03:31:29;;;;;;;7.15;6.55;;;17.60;99.90;;;;;;2083681;28;20546;-68
2022/06/05 03:32:30;;;;;;;7.05;6.45;;;17.60;99.90;;;;;;2085115;28;20021;-68
2022/06/05 03:33:31;;;;;;;6.88;6.28;;;17.60;99.90;;;;;;2086486;28;20041;-69
2022/06/05 03:34:32;;;;;;;7.13;6.45;;;17.60;99.90;;;;;;2084441;28;20039;-68
2022/06/05 03:35:36;;;;;;;7.30;6.57;;;17.60;99.90;;;;;;2086442;28;20094;-68
2022/06/05 03:36:37;;;;;;;7.05;6.45;;;17.60;99.90;;;;;;2087997;28;20021;-68
2022/06/05 03:37:37;;;;;;;7.43;6.80;;;17.60;99.90;;;;;;2082195;28;20097;-68
2022/06/05 03:38:39;;;;;;;7.53;6.93;;;17.60;99.90;;;;;;2081714;28;20059;-68
2022/06/05 03:39:39;;;;;;;7.40;6.80;;;17.60;99.90;;;;;;2084724;28;20034;-68
2022/06/05 03:40:42;;;;;;;7.90;7.10;;;17.60;99.90;;;;;;2088993;28;20079;-68
2022/06/05 03:41:43;;;;;;;7.28;6.63;;;17.60;99.90;;;;;;2088964;28;20738;-69
2022/06/05 03:42:45;;;;;;;7.72;6.80;;;17.60;99.90;;;;;;2086985;28;20045;-68
2022/06/05 03:43:47;;;;;;;7.57;6.75;;;17.60;99.90;;;;;;2082705;28;20028;-68
2022/06/05 03:44:47;;;;;;;7.60;6.88;;;17.70;99.90;;;;;;2083871;28;20017;-68
2022/06/05 03:45:48;;;;;;;6.65;6.22;;;17.60;99.90;;;;;;2082001;28;20105;-68
2022/06/05 03:46:49;;;;;;;7.65;6.82;;;17.70;99.90;;;;;;2081750;28;20029;-68
2022/06/05 03:47:50;;;;;;;7.15;6.57;;;17.70;99.90;;;;;;2084343;28;20092;-68
2022/06/05 03:48:51;;;;;;;9.18;6.88;;;17.60;99.90;;;;;;2080957;28;20084;-68
2022/06/05 03:49:51;;;;;;;7.63;6.82;;;17.70;99.90;;;;;;2085536;28;20071;-68
2022/06/05 03:50:52;;;;;;;7.93;7.13;;;17.70;99.90;;;;;;2082637;28;20021;-68
2022/06/05 03:51:53;;;;;;;6.97;6.32;;;17.70;99.90;;;;;;2082690;28;20045;-68
2022/06/05 03:52:54;;;;;;;7.25;6.65;;;17.60;99.90;;;;;;2085882;28;20036;-68
2022/06/05 03:53:54;;;;;;;7.90;7.10;;;17.60;99.90;;;;;;2080090;28;20103;-68
2022/06/05 03:54:55;;;;;;;8.52;7.18;;;17.70;99.90;;;;;;2087587;28;20384;-68
2022/06/05 03:55:55;;;;;;;7.38;6.78;;;17.70;99.90;;;;;;2082531;28;20075;-68
2022/06/05 03:56:56;;;;;;;7.93;6.80;;;17.70;99.90;;;;;;2086548;28;20017;-68
2022/06/05 03:57:57;;;;;;;7.65;6.95;;;17.70;99.90;;;;;;2085767;28;20058;-68
2022/06/05 03:58:58;;;;;;;7.95;6.32;;;17.80;99.90;;;;;;2086299;28;20489;-68
2022/06/05 03:59:59;;;;;;;7.30;6.63;;;17.80;99.90;;;;;;2085207;28;20465;-68
2022/06/05 04:00:59;;;;;;;6.97;6.38;;;17.80;99.90;;;;;;2085266;28;20397;-69
2022/06/05 04:02:00;;;;;;;7.05;6.18;;;17.90;99.90;;;;;;2082296;28;20478;-69
2022/06/05 04:03:01;;;;;;;6.85;6.25;;;17.90;99.90;;;;;;2084901;28;20033;-69
2022/06/05 04:04:02;;;;;;;7.15;6.50;;;17.90;99.90;;;;;;2084402;28;20049;-69
2022/06/05 04:05:04;;;;;;;7.03;6.35;;;17.90;99.90;;;;;;2086170;28;20053;-69
2022/06/05 04:06:07;;;;;;;6.70;6.05;;;17.90;99.90;;;;;;2084120;28;20052;-69
2022/06/05 04:07:07;;;;;;;7.03;6.43;;;18.00;99.90;;;;;;2082540;28;20072;-69
2022/06/05 04:08:08;;;;;;;6.65;6.05;;;18.00;99.90;;;;;;2082995;28;20028;-69
2022/06/05 04:09:09;;;;;;;6.68;5.97;;;18.00;99.90;;;;;;2085852;28;20085;-69
2022/06/05 04:10:12;;;;;;;6.40;5.80;;;18.10;99.90;;;;;;2083062;28;20113;-69
2022/06/05 04:11:17;;;;;;;6.57;5.93;;;18.20;99.90;;;;;;2084390;28;20516;-69
2022/06/05 04:12:18;;;;;;;6.75;5.95;;;18.20;99.90;;;;;;2083522;28;20144;-69
2022/06/05 04:13:18;;;;;;;7.97;5.80;;;18.30;99.90;;;;;;2084545;28;20021;-69
2022/06/05 04:14:19;;;;;;;6.78;6.13;;;18.30;99.90;;;;;;2086634;28;20470;-69
2022/06/05 04:15:19;;;;;;;6.40;5.90;;;18.40;99.90;;;;;;2082492;28;20032;-69
2022/06/05 04:16:23;;;;;;;7.45;6.65;;;18.40;99.90;;;;;;2082621;28;20059;-69
2022/06/05 04:17:23;;;;;;;6.30;5.80;;;18.40;99.90;;;;;;2083675;28;20076;-69
2022/06/05 04:18:24;;;;;;;6.20;5.80;;;18.40;99.90;;;;;;2082784;28;20055;-69
2022/06/05 04:19:24;;;;;;;7.15;6.45;;;18.40;99.90;;;;;;2086515;28;20025;-69
2022/06/05 04:20:25;;;;;;;6.68;5.93;;;18.40;99.90;;;;;;2086025;28;20032;-69
2022/06/05 04:21:29;;;;;;;6.13;5.60;;;18.40;99.90;;;;;;2084543;28;20508;-69
2022/06/05 04:22:29;;;;;;;5.88;5.38;;;18.50;99.90;;;;;;2086000;28;20025;-69
2022/06/05 04:23:30;;;;;;;6.72;6.13;;;18.40;99.90;;;;;;2081857;28;20082;-69
2022/06/05 04:24:31;;;;;;;6.90;6.30;;;18.50;99.90;;;;;;2088242;28;20036;-69
2022/06/05 04:25:32;;;;;;;6.35;5.82;;;18.40;99.90;;;;;;2083171;28;20385;-69
2022/06/05 04:26:34;;;;;;;6.80;6.20;;;18.40;99.90;;;;;;2083673;28;20158;-69
2022/06/05 04:27:35;;;;;;;6.82;6.22;;;18.40;99.90;;;;;;2084536;28;20111;-69
2022/06/05 04:28:36;;;;;;;6.70;6.13;;;18.40;99.90;;;;;;2085679;28;20021;-69
2022/06/05 04:29:37;;;;;;;6.95;6.28;;;18.40;99.90;;;;;;2084737;28;20052;-69
2022/06/05 04:30:39;;;;;;;7.97;6.20;;;18.40;99.90;;;;;;2083364;28;20715;-69
2022/06/05 04:31:45;;;;;;;6.88;6.30;;;18.40;99.90;;;;;;2084744;28;20025;-69
2022/06/05 04:32:45;;;;;;;6.35;5.72;;;18.40;99.90;;;;;;2085673;28;20029;-69
2022/06/05 04:33:47;;;;;;;6.88;6.10;;;18.30;99.90;;;;;;2082434;28;20074;-69
2022/06/05 04:34:50;;;;;;;6.63;6.03;;;18.30;99.90;;;;;;2082274;28;20100;-69
2022/06/05 04:35:51;;;;;;;7.45;6.05;;;18.30;99.90;;;;;;2081809;28;20021;-69
2022/06/05 04:36:51;;;;;;;6.70;6.00;;;18.30;99.90;;;;;;2083492;28;20034;-69
2022/06/05 04:37:52;;;;;;;8.00;6.05;;;18.30;99.90;;;;;;2080272;28;20021;-69
2022/06/05 04:38:53;;;;;;;6.90;5.78;;;18.20;99.90;;;;;;2083515;28;20088;-69
2022/06/05 04:39:54;;;;;;;7.90;5.70;;;18.20;99.90;;;;;;2087925;28;20024;-69
2022/06/05 04:40:55;;;;;;;8.65;6.50;;;18.20;99.90;;;;;;2086412;28;20021;-69
2022/06/05 04:41:55;;;;;;;6.00;5.50;;;18.20;99.90;;;;;;2082289;28;20029;-69
2022/06/05 04:42:56;;;;;;;6.45;5.95;;;18.20;99.90;;;;;;2082714;28;20014;-69
2022/06/05 04:43:57;;;;;;;6.57;6.00;;;18.20;99.90;;;;;;2080533;28;20499;-69
2022/06/05 04:44:58;;;;;;;7.25;5.68;;;18.20;99.90;;;;;;2084069;28;20044;-69
2022/06/05 04:45:59;;;;;;;7.43;6.18;;;18.20;99.90;;;;;;2081031;28;20036;-69
2022/06/05 04:46:59;;;;;;;7.13;6.30;;;18.20;99.90;;;;;;2084450;28;20421;-69
2022/06/05 04:48:00;;;;;;;9.07;6.03;;;18.20;99.90;;;;;;2082928;28;20702;-69
2022/06/05 04:49:01;;;;;;;8.60;6.45;;;18.20;99.90;;;;;;2082844;28;20037;-69
2022/06/05 04:50:03;;;;;;;7.00;6.28;;;18.20;99.90;;;;;;2082896;28;20034;-69
2022/06/05 04:51:08;;;;;;;6.88;6.13;;;18.20;99.90;;;;;;2082518;28;20088;-69
2022/06/05 04:52:09;;;;;;;6.30;5.80;;;18.20;99.90;;;;;;2082150;28;20033;-69
2022/06/05 04:53:09;;;;;;;8.50;6.47;;;18.20;99.90;;;;;;2083967;28;20037;-69
2022/06/05 04:54:12;;;;;;;8.88;6.00;;;18.20;99.90;;;;;;2086372;28;20029;-69
2022/06/05 04:55:13;;;;;;;6.75;5.70;;;18.20;99.90;;;;;;2086607;28;20037;-69
2022/06/05 04:56:18;;;;;;;7.22;6.00;;;18.20;99.90;;;;;;2084568;28;20052;-69
2022/06/05 04:57:19;;;;;;;6.43;5.93;;;18.20;99.90;;;;;;2081388;28;20083;-69
2022/06/05 04:58:20;;;;;;;9.27;6.45;;;18.20;99.90;;;;;;2083927;28;20017;-69
2022/06/05 04:59:20;;;;;;;6.30;5.70;;;18.20;99.90;;;;;;2082568;28;20056;-69
2022/06/05 05:00:23;;;;;;;7.70;6.30;;;18.20;99.90;;;;;;2082366;28;20029;-69
2022/06/05 05:01:32;;;;;;;7.57;6.60;;;18.20;99.90;;;;;;2086809;28;20430;-69
2022/06/05 05:02:34;;;;;;;6.68;5.82;;;18.20;99.90;;;;;;2080666;28;20113;-69
2022/06/05 05:03:34;;;;;;;6.22;5.70;;;18.20;99.90;;;;;;2082903;28;20029;-69
2022/06/05 05:04:35;;;;;;;6.82;6.22;;;18.20;99.90;;;;;;2082132;28;20108;-69
2022/06/05 05:05:36;;;;;;;6.65;6.07;;;18.20;99.90;;;;;;2081898;28;20025;-69
2022/06/05 05:06:38;;;;;;;8.65;6.55;;;18.20;99.90;;;;;;2082824;28;20018;-69
2022/06/05 05:07:38;;;;;;;7.97;6.10;;;18.20;99.90;;;;;;2086086;28;20380;-69
2022/06/05 05:08:39;;;;;;;6.65;6.03;;;18.20;99.90;;;;;;2085405;28;20021;-69
2022/06/05 05:09:40;;;;;;;7.22;5.88;;;18.20;99.90;;;;;;2083329;28;20025;-69
2022/06/05 05:10:42;;;;;;;6.00;5.50;;;18.20;99.90;;;;;;2087956;28;20037;-69
2022/06/05 05:11:43;;;;;;;8.43;5.82;;;18.20;99.90;;;;;;2084316;28;20480;-69
2022/06/05 05:12:43;;;;;;;6.45;5.85;;;18.20;99.90;;;;;;2083188;28;20108;-69
2022/06/05 05:13:44;;;;;;;5.80;5.22;;;18.20;99.90;;;;;;2080355;28;20040;-69
2022/06/05 05:14:45;;;;;;;8.20;6.40;;;18.30;99.90;;;;;;2081082;28;20025;-69
2022/06/05 05:15:50;;;;;;;6.45;5.93;;;18.30;99.90;;;;;;2082735;28;20036;-69
2022/06/05 05:16:50;;;;;;;7.10;6.28;;;18.30;99.90;;;;;;2086490;28;20028;-69
2022/06/05 05:17:51;;;;;;;8.75;5.78;;;18.30;99.90;;;;;;2084341;28;20057;-69
2022/06/05 05:18:53;;;;;;;7.18;6.47;;;18.30;99.90;;;;;;2083909;28;20020;-69
2022/06/05 05:19:55;;;;;;;7.60;5.97;;;18.30;99.90;;;;;;2082118;28;20351;-69
2022/06/05 05:21:04;;;;;;;9.35;6.57;;;18.30;99.90;;;;;;2086287;28;20017;-69
2022/06/05 05:22:05;;;;;;;6.20;5.70;;;18.30;99.90;;;;;;2081486;28;20029;-69
2022/06/05 05:23:07;;;;;;;11.80;6.63;;;18.30;99.90;;;;;;2081949;28;20026;-69
2022/06/05 05:24:08;;;;;;;7.13;6.38;;;18.30;99.90;;;;;;2083917;28;20029;-69
2022/06/05 05:25:11;;;;;;;7.45;6.20;;;18.30;99.90;;;;;;2086316;28;20036;-69
2022/06/05 05:26:20;;;;;;;7.13;6.40;;;18.30;99.90;;;;;;2085272;28;20512;-69
2022/06/05 05:27:21;;;;;;;6.78;6.20;;;18.30;99.90;;;;;;2084830;28;20037;-69
2022/06/05 05:28:22;;;;;;;7.53;6.80;;;18.30;99.90;;;;;;2083372;28;20021;-69
2022/06/05 05:29:22;;;;;;;7.00;6.38;;;18.30;99.90;;;;;;2087225;28;20096;-69
2022/06/05 05:30:23;;;;;;;7.32;6.53;;;18.30;99.90;;;;;;2081599;28;20049;-69
2022/06/05 05:31:27;;;;;;;7.57;6.75;;;18.40;99.90;;;;;;2081481;28;20516;-68
2022/06/05 05:32:28;;;;;;;6.80;6.10;;;18.40;99.90;;;;;;2090966;28;20144;-68
2022/06/05 05:33:29;;;;;;;6.32;5.82;;;18.40;99.90;;;;;;2092222;28;21922;-68
2022/06/05 05:34:30;;;;;;;7.07;6.47;;;18.40;99.90;;;;;;2080621;28;20119;-68
2022/06/05 05:35:30;;;;;;;6.72;5.88;;;18.40;99.90;;;;;;2083035;28;20480;-69
2022/06/05 05:36:31;;;;;;;6.32;5.53;;;18.40;99.90;;;;;;2078878;28;20028;-69
2022/06/05 05:37:32;;;;;;;6.60;6.00;;;18.40;99.90;;;;;;2081413;28;20039;-68
2022/06/05 05:38:33;;;;;;;7.47;5.80;;;18.40;99.90;;;;;;2085356;28;20473;-68
2022/06/05 05:42:12;;;;;;;6.15;5.55;;;18.40;99.90;;;;;;2087135;28;20014;-68
2022/06/05 05:43:13;;;;;;;6.57;6.00;;;18.50;99.90;;;;;;2083520;28;20069;-68
2022/06/05 05:44:14;;;;;;;7.30;5.78;;;18.40;99.90;;;;;;2081885;28;20040;-68
2022/06/05 05:45:15;;;;;;;6.97;6.30;;;18.50;99.90;;;;;;2082265;28;20049;-69
2022/06/05 05:46:16;;;;;;;6.95;5.70;;;18.50;99.90;;;;;;2086196;28;20029;-68